sensor_id;sensor_type;location;lat;lon;timestamp;P1;durP1;ratioP1;P2;durP2;ratioP2
10473;SDS011;5284;50.446;7.904;2023-03-14T00:02:00;5.78;;;1.80;;
10473;SDS011;5284;50.446;7.904;2023-03-14T00:07:03;6.93;;;1.52;;
10473;SDS011;5284;50.446;7.904;2023-03-14T00:12:06;4.65;;;1.70;;
10473;SDS011;5284;50.446;7.904;2023-03-14T00:17:10;7.10;;;1.30;;
10473;SDS011;5284;50.446;7.904;2023-03-14T00:22:15;7.30;;;1.63;;
10473;SDS011;5284;50.446;7.904;2023-03-14T00:27:17;9.52;;;1.70;;
10473;SDS011;5284;50.446;7.904;2023-03-14T00:32:24;12.07;;;1.85;;
10473;SDS011;5284;50.446;7.904;2023-03-14T00:37:27;9.48;;;1.70;;
10473;SDS011;5284;50.446;7.904;2023-03-14T00:42:30;9.10;;;1.65;;
10473;SDS011;5284;50.446;7.904;2023-03-14T00:47:34;11.95;;;2.53;;
10473;SDS011;5284;50.446;7.904;2023-03-14T00:52:37;10.07;;;2.10;;
10473;SDS011;5284;50.446;7.904;2023-03-14T00:57:40;11.02;;;2.40;;
10473;SDS011;5284;50.446;7.904;2023-03-14T01:02:44;9.65;;;2.03;;
10473;SDS011;5284;50.446;7.904;2023-03-14T01:07:50;11.43;;;1.98;;
10473;SDS011;5284;50.446;7.904;2023-03-14T01:12:53;12.57;;;1.77;;
10473;SDS011;5284;50.446;7.904;2023-03-14T01:17:58;11.88;;;2.00;;
10473;SDS011;5284;50.446;7.904;2023-03-14T01:23:00;23.58;;;2.70;;
10473;SDS011;5284;50.446;7.904;2023-03-14T01:28:03;8.15;;;2.03;;
10473;SDS011;5284;50.446;7.904;2023-03-14T01:33:08;9.20;;;2.28;;
10473;SDS011;5284;50.446;7.904;2023-03-14T01:38:11;14.93;;;2.42;;
10473;SDS011;5284;50.446;7.904;2023-03-14T01:43:15;18.83;;;2.22;;
10473;SDS011;5284;50.446;7.904;2023-03-14T01:48:20;11.88;;;1.98;;
10473;SDS011;5284;50.446;7.904;2023-03-14T01:53:23;15.23;;;2.75;;
10473;SDS011;5284;50.446;7.904;2023-03-14T01:58:27;12.93;;;2.28;;
10473;SDS011;5284;50.446;7.904;2023-03-14T02:03:38;9.43;;;2.78;;
10473;SDS011;5284;50.446;7.904;2023-03-14T02:08:47;23.85;;;2.65;;
10473;SDS011;5284;50.446;7.904;2023-03-14T02:13:55;16.83;;;1.98;;
10473;SDS011;5284;50.446;7.904;2023-03-14T02:19:23;25.63;;;3.70;;
10473;SDS011;5284;50.446;7.904;2023-03-14T02:24:57;11.80;;;1.95;;
10473;SDS011;5284;50.446;7.904;2023-03-14T02:30:11;15.88;;;1.60;;
10473;SDS011;5284;50.446;7.904;2023-03-14T02:35:18;17.17;;;2.28;;
10473;SDS011;5284;50.446;7.904;2023-03-14T02:40:24;16.15;;;2.45;;
10473;SDS011;5284;50.446;7.904;2023-03-14T02:45:39;11.75;;;2.25;;
10473;SDS011;5284;50.446;7.904;2023-03-14T02:50:50;14.77;;;2.55;;
10473;SDS011;5284;50.446;7.904;2023-03-14T02:55:56;12.43;;;2.30;;
10473;SDS011;5284;50.446;7.904;2023-03-14T03:01:02;12.05;;;2.08;;
10473;SDS011;5284;50.446;7.904;2023-03-14T03:06:05;12.90;;;1.83;;
10473;SDS011;5284;50.446;7.904;2023-03-14T03:11:09;23.25;;;4.15;;
10473;SDS011;5284;50.446;7.904;2023-03-14T03:16:13;15.23;;;2.40;;
10473;SDS011;5284;50.446;7.904;2023-03-14T03:21:16;10.80;;;2.00;;
10473;SDS011;5284;50.446;7.904;2023-03-14T03:26:20;14.70;;;1.75;;
10473;SDS011;5284;50.446;7.904;2023-03-14T03:31:24;13.38;;;2.10;;
10473;SDS011;5284;50.446;7.904;2023-03-14T03:36:27;7.15;;;1.73;;
10473;SDS011;5284;50.446;7.904;2023-03-14T03:41:32;13.63;;;2.40;;
10473;SDS011;5284;50.446;7.904;2023-03-14T03:46:37;7.68;;;1.83;;
10473;SDS011;5284;50.446;7.904;2023-03-14T03:51:41;11.35;;;2.20;;
10473;SDS011;5284;50.446;7.904;2023-03-14T03:56:44;10.75;;;1.45;;
10473;SDS011;5284;50.446;7.904;2023-03-14T04:01:49;11.18;;;1.38;;
10473;SDS011;5284;50.446;7.904;2023-03-14T04:06:52;11.93;;;1.55;;
10473;SDS011;5284;50.446;7.904;2023-03-14T04:11:55;8.02;;;1.20;;
10473;SDS011;5284;50.446;7.904;2023-03-14T04:17:11;4.47;;;1.35;;
10473;SDS011;5284;50.446;7.904;2023-03-14T04:22:14;4.00;;;0.77;;
10473;SDS011;5284;50.446;7.904;2023-03-14T04:27:23;5.40;;;0.95;;
10473;SDS011;5284;50.446;7.904;2023-03-14T04:32:29;2.28;;;0.95;;
10473;SDS011;5284;50.446;7.904;2023-03-14T04:37:33;8.68;;;2.70;;
10473;SDS011;5284;50.446;7.904;2023-03-14T04:42:36;4.78;;;0.82;;
10473;SDS011;5284;50.446;7.904;2023-03-14T04:47:41;7.70;;;1.10;;
10473;SDS011;5284;50.446;7.904;2023-03-14T04:52:48;3.38;;;1.05;;
10473;SDS011;5284;50.446;7.904;2023-03-14T04:57:52;4.15;;;0.75;;
10473;SDS011;5284;50.446;7.904;2023-03-14T05:02:57;0.50;;;0.40;;
10473;SDS011;5284;50.446;7.904;2023-03-14T05:08:23;3.28;;;0.80;;
10473;SDS011;5284;50.446;7.904;2023-03-14T05:13:38;1.48;;;0.82;;
10473;SDS011;5284;50.446;7.904;2023-03-14T05:18:51;3.88;;;0.98;;
10473;SDS011;5284;50.446;7.904;2023-03-14T05:24:17;3.53;;;0.77;;
10473;SDS011;5284;50.446;7.904;2023-03-14T05:29:32;3.83;;;0.70;;
10473;SDS011;5284;50.446;7.904;2023-03-14T05:34:59;0.90;;;0.60;;
10473;SDS011;5284;50.446;7.904;2023-03-14T05:40:16;4.30;;;0.50;;
10473;SDS011;5284;50.446;7.904;2023-03-14T05:45:31;2.85;;;1.02;;
10473;SDS011;5284;50.446;7.904;2023-03-14T05:51:05;1.58;;;0.82;;
10473;SDS011;5284;50.446;7.904;2023-03-14T05:56:20;0.38;;;0.32;;
10473;SDS011;5284;50.446;7.904;2023-03-14T06:01:40;2.38;;;0.60;;
10473;SDS011;5284;50.446;7.904;2023-03-14T06:06:51;1.08;;;0.45;;
10473;SDS011;5284;50.446;7.904;2023-03-14T06:11:55;1.45;;;0.50;;
10473;SDS011;5284;50.446;7.904;2023-03-14T06:16:58;3.20;;;0.60;;
10473;SDS011;5284;50.446;7.904;2023-03-14T06:22:07;1.55;;;0.50;;
10473;SDS011;5284;50.446;7.904;2023-03-14T06:27:12;3.57;;;0.63;;
10473;SDS011;5284;50.446;7.904;2023-03-14T06:32:15;3.10;;;0.50;;
10473;SDS011;5284;50.446;7.904;2023-03-14T06:37:19;2.15;;;0.55;;
10473;SDS011;5284;50.446;7.904;2023-03-14T06:42:22;0.35;;;0.35;;
10473;SDS011;5284;50.446;7.904;2023-03-14T06:47:27;1.55;;;0.50;;
10473;SDS011;5284;50.446;7.904;2023-03-14T06:52:33;6.40;;;0.90;;
10473;SDS011;5284;50.446;7.904;2023-03-14T06:57:36;2.17;;;0.68;;
10473;SDS011;5284;50.446;7.904;2023-03-14T07:02:40;2.55;;;0.70;;
10473;SDS011;5284;50.446;7.904;2023-03-14T07:08:01;2.95;;;0.93;;
10473;SDS011;5284;50.446;7.904;2023-03-14T07:13:04;2.05;;;0.57;;
10473;SDS011;5284;50.446;7.904;2023-03-14T07:18:11;4.47;;;0.77;;
10473;SDS011;5284;50.446;7.904;2023-03-14T07:23:15;2.83;;;0.75;;
10473;SDS011;5284;50.446;7.904;2023-03-14T07:28:23;0.88;;;0.40;;
10473;SDS011;5284;50.446;7.904;2023-03-14T07:33:32;2.22;;;0.63;;
10473;SDS011;5284;50.446;7.904;2023-03-14T07:38:38;1.73;;;0.52;;
10473;SDS011;5284;50.446;7.904;2023-03-14T07:44:00;3.60;;;0.57;;
10473;SDS011;5284;50.446;7.904;2023-03-14T07:49:03;1.45;;;0.50;;
10473;SDS011;5284;50.446;7.904;2023-03-14T07:54:07;2.88;;;0.85;;
10473;SDS011;5284;50.446;7.904;2023-03-14T07:59:10;1.13;;;0.65;;
10473;SDS011;5284;50.446;7.904;2023-03-14T08:04:13;4.30;;;0.60;;
10473;SDS011;5284;50.446;7.904;2023-03-14T08:09:18;2.60;;;0.63;;
10473;SDS011;5284;50.446;7.904;2023-03-14T08:14:21;1.20;;;0.45;;
10473;SDS011;5284;50.446;7.904;2023-03-14T08:19:26;1.17;;;0.32;;
10473;SDS011;5284;50.446;7.904;2023-03-14T08:24:31;0.88;;;0.40;;
10473;SDS011;5284;50.446;7.904;2023-03-14T08:29:35;0.50;;;0.40;;
10473;SDS011;5284;50.446;7.904;2023-03-14T08:34:38;0.45;;;0.45;;
10473;SDS011;5284;50.446;7.904;2023-03-14T08:39:42;0.70;;;0.43;;
10473;SDS011;5284;50.446;7.904;2023-03-14T08:44:46;1.13;;;0.30;;
10473;SDS011;5284;50.446;7.904;2023-03-14T08:49:49;1.08;;;0.40;;
10473;SDS011;5284;50.446;7.904;2023-03-14T08:54:53;1.10;;;0.45;;
10473;SDS011;5284;50.446;7.904;2023-03-14T08:59:58;0.50;;;0.40;;
10473;SDS011;5284;50.446;7.904;2023-03-14T09:05:01;1.00;;;0.30;;
10473;SDS011;5284;50.446;7.904;2023-03-14T09:10:06;2.53;;;0.57;;
10473;SDS011;5284;50.446;7.904;2023-03-14T09:15:11;2.65;;;0.50;;
10473;SDS011;5284;50.446;7.904;2023-03-14T09:20:15;2.67;;;0.40;;
10473;SDS011;5284;50.446;7.904;2023-03-14T09:25:20;0.30;;;0.30;;
10473;SDS011;5284;50.446;7.904;2023-03-14T09:30:23;1.95;;;0.50;;
10473;SDS011;5284;50.446;7.904;2023-03-14T09:35:25;0.40;;;0.30;;
10473;SDS011;5284;50.446;7.904;2023-03-14T09:40:31;0.30;;;0.30;;
10473;SDS011;5284;50.446;7.904;2023-03-14T09:45:37;1.15;;;0.30;;
10473;SDS011;5284;50.446;7.904;2023-03-14T09:50:44;1.05;;;0.32;;
10473;SDS011;5284;50.446;7.904;2023-03-14T09:55:50;1.13;;;0.40;;
10473;SDS011;5284;50.446;7.904;2023-03-14T10:00:55;0.60;;;0.30;;
10473;SDS011;5284;50.446;7.904;2023-03-14T10:06:00;1.40;;;0.30;;
10473;SDS011;5284;50.446;7.904;2023-03-14T10:11:09;1.05;;;0.35;;
10473;SDS011;5284;50.446;7.904;2023-03-14T10:16:16;0.20;;;0.20;;
10473;SDS011;5284;50.446;7.904;2023-03-14T10:21:21;1.50;;;0.30;;
10473;SDS011;5284;50.446;7.904;2023-03-14T10:26:29;2.55;;;0.40;;
10473;SDS011;5284;50.446;7.904;2023-03-14T10:31:47;0.95;;;0.40;;
10473;SDS011;5284;50.446;7.904;2023-03-14T10:36:55;2.80;;;0.40;;
10473;SDS011;5284;50.446;7.904;2023-03-14T10:42:04;2.75;;;0.60;;
10473;SDS011;5284;50.446;7.904;2023-03-14T10:47:15;9.25;;;3.35;;
10473;SDS011;5284;50.446;7.904;2023-03-14T10:52:22;8.60;;;4.30;;
10473;SDS011;5284;50.446;7.904;2023-03-14T10:57:39;3.15;;;1.85;;
10473;SDS011;5284;50.446;7.904;2023-03-14T11:02:55;1.77;;;1.05;;
10473;SDS011;5284;50.446;7.904;2023-03-14T11:08:08;0.55;;;0.47;;
10473;SDS011;5284;50.446;7.904;2023-03-14T11:13:20;3.78;;;1.48;;
10473;SDS011;5284;50.446;7.904;2023-03-14T11:18:36;1.90;;;0.70;;
10473;SDS011;5284;50.446;7.904;2023-03-14T11:23:54;3.55;;;0.60;;
10473;SDS011;5284;50.446;7.904;2023-03-14T11:29:16;0.88;;;0.70;;
10473;SDS011;5284;50.446;7.904;2023-03-14T11:34:25;2.95;;;0.90;;
10473;SDS011;5284;50.446;7.904;2023-03-14T11:39:34;2.28;;;1.02;;
10473;SDS011;5284;50.446;7.904;2023-03-14T11:44:43;1.15;;;0.82;;
10473;SDS011;5284;50.446;7.904;2023-03-14T11:49:50;1.65;;;1.00;;
10473;SDS011;5284;50.446;7.904;2023-03-14T11:55:02;2.60;;;1.00;;
10473;SDS011;5284;50.446;7.904;2023-03-14T12:00:15;3.50;;;0.93;;
10473;SDS011;5284;50.446;7.904;2023-03-14T12:05:30;1.20;;;0.82;;
10473;SDS011;5284;50.446;7.904;2023-03-14T12:10:44;3.20;;;0.85;;
10473;SDS011;5284;50.446;7.904;2023-03-14T12:15:55;3.28;;;1.25;;
10473;SDS011;5284;50.446;7.904;2023-03-14T12:21:01;1.83;;;1.10;;
10473;SDS011;5284;50.446;7.904;2023-03-14T12:26:08;1.57;;;1.23;;
10473;SDS011;5284;50.446;7.904;2023-03-14T12:31:40;3.70;;;1.63;;
10473;SDS011;5284;50.446;7.904;2023-03-14T12:36:51;1.70;;;1.45;;
10473;SDS011;5284;50.446;7.904;2023-03-14T12:42:02;2.58;;;1.00;;
10473;SDS011;5284;50.446;7.904;2023-03-14T12:52:48;2.55;;;0.93;;
10473;SDS011;5284;50.446;7.904;2023-03-14T12:58:10;2.63;;;1.05;;
10473;SDS011;5284;50.446;7.904;2023-03-14T13:03:18;2.95;;;1.42;;
10473;SDS011;5284;50.446;7.904;2023-03-14T13:08:34;2.78;;;1.20;;
10473;SDS011;5284;50.446;7.904;2023-03-14T13:13:45;1.40;;;0.80;;
10473;SDS011;5284;50.446;7.904;2023-03-14T13:18:50;0.47;;;0.47;;
10473;SDS011;5284;50.446;7.904;2023-03-14T13:24:04;0.68;;;0.60;;
10473;SDS011;5284;50.446;7.904;2023-03-14T13:29:14;0.73;;;0.50;;
10473;SDS011;5284;50.446;7.904;2023-03-14T13:34:19;0.63;;;0.60;;
10473;SDS011;5284;50.446;7.904;2023-03-14T13:39:25;1.80;;;0.90;;
10473;SDS011;5284;50.446;7.904;2023-03-14T13:44:33;4.78;;;1.10;;
10473;SDS011;5284;50.446;7.904;2023-03-14T13:49:38;4.33;;;1.43;;
10473;SDS011;5284;50.446;7.904;2023-03-14T13:54:44;4.18;;;1.77;;
10473;SDS011;5284;50.446;7.904;2023-03-14T13:59:57;4.05;;;2.08;;
10473;SDS011;5284;50.446;7.904;2023-03-14T14:05:05;6.30;;;3.13;;
10473;SDS011;5284;50.446;7.904;2023-03-14T14:10:10;5.55;;;3.15;;
10473;SDS011;5284;50.446;7.904;2023-03-14T14:15:15;16.70;;;5.47;;
10473;SDS011;5284;50.446;7.904;2023-03-14T14:20:25;8.48;;;4.13;;
10473;SDS011;5284;50.446;7.904;2023-03-14T14:25:37;9.23;;;4.45;;
10473;SDS011;5284;50.446;7.904;2023-03-14T14:30:42;5.75;;;4.18;;
10473;SDS011;5284;50.446;7.904;2023-03-14T14:35:50;9.18;;;3.70;;
10473;SDS011;5284;50.446;7.904;2023-03-14T14:40:59;9.43;;;3.42;;
10473;SDS011;5284;50.446;7.904;2023-03-14T14:46:05;3.80;;;2.63;;
10473;SDS011;5284;50.446;7.904;2023-03-14T14:51:09;1.85;;;1.45;;
10473;SDS011;5284;50.446;7.904;2023-03-14T14:56:17;2.15;;;1.40;;
10473;SDS011;5284;50.446;7.904;2023-03-14T15:01:25;3.22;;;1.70;;
10473;SDS011;5284;50.446;7.904;2023-03-14T15:06:34;1.98;;;1.35;;
10473;SDS011;5284;50.446;7.904;2023-03-14T15:11:38;6.43;;;1.63;;
10473;SDS011;5284;50.446;7.904;2023-03-14T15:16:41;9.02;;;2.90;;
10473;SDS011;5284;50.446;7.904;2023-03-14T15:21:44;10.18;;;4.32;;
10473;SDS011;5284;50.446;7.904;2023-03-14T15:26:50;6.47;;;4.03;;
10473;SDS011;5284;50.446;7.904;2023-03-14T15:31:53;6.50;;;4.28;;
10473;SDS011;5284;50.446;7.904;2023-03-14T15:36:56;7.18;;;4.65;;
10473;SDS011;5284;50.446;7.904;2023-03-14T15:42:02;6.10;;;3.28;;
10473;SDS011;5284;50.446;7.904;2023-03-14T15:47:05;4.75;;;2.67;;
10473;SDS011;5284;50.446;7.904;2023-03-14T15:52:08;7.57;;;3.08;;
10473;SDS011;5284;50.446;7.904;2023-03-14T15:57:14;6.85;;;2.50;;
10473;SDS011;5284;50.446;7.904;2023-03-14T16:02:17;8.05;;;3.83;;
10473;SDS011;5284;50.446;7.904;2023-03-14T16:07:24;39.42;;;16.42;;
10473;SDS011;5284;50.446;7.904;2023-03-14T16:12:28;8.23;;;3.88;;
10473;SDS011;5284;50.446;7.904;2023-03-14T16:17:32;12.10;;;5.03;;
10473;SDS011;5284;50.446;7.904;2023-03-14T16:22:35;4.30;;;2.30;;
10473;SDS011;5284;50.446;7.904;2023-03-14T16:27:40;8.45;;;3.13;;
10473;SDS011;5284;50.446;7.904;2023-03-14T16:32:44;6.28;;;2.80;;
10473;SDS011;5284;50.446;7.904;2023-03-14T16:42:54;8.40;;;3.28;;
10473;SDS011;5284;50.446;7.904;2023-03-14T16:48:16;7.88;;;2.58;;
10473;SDS011;5284;50.446;7.904;2023-03-14T16:53:19;14.82;;;3.83;;
10473;SDS011;5284;50.446;7.904;2023-03-14T16:58:24;12.90;;;3.50;;
10473;SDS011;5284;50.446;7.904;2023-03-14T17:03:27;9.55;;;4.32;;
10473;SDS011;5284;50.446;7.904;2023-03-14T17:08:31;27.38;;;4.65;;
10473;SDS011;5284;50.446;7.904;2023-03-14T17:13:36;21.52;;;7.13;;
10473;SDS011;5284;50.446;7.904;2023-03-14T17:18:40;31.92;;;11.07;;
10473;SDS011;5284;50.446;7.904;2023-03-14T17:23:42;32.03;;;13.02;;
10473;SDS011;5284;50.446;7.904;2023-03-14T17:28:47;51.05;;;17.88;;
10473;SDS011;5284;50.446;7.904;2023-03-14T17:33:50;25.25;;;13.20;;
10473;SDS011;5284;50.446;7.904;2023-03-14T17:38:54;21.13;;;6.93;;
10473;SDS011;5284;50.446;7.904;2023-03-14T17:44:00;19.70;;;8.05;;
10473;SDS011;5284;50.446;7.904;2023-03-14T17:49:03;30.90;;;9.13;;
10473;SDS011;5284;50.446;7.904;2023-03-14T17:54:05;26.35;;;8.27;;
10473;SDS011;5284;50.446;7.904;2023-03-14T17:59:10;37.63;;;6.05;;
10473;SDS011;5284;50.446;7.904;2023-03-14T18:04:13;20.70;;;7.20;;
10473;SDS011;5284;50.446;7.904;2023-03-14T18:09:17;23.33;;;6.20;;
10473;SDS011;5284;50.446;7.904;2023-03-14T18:14:21;17.60;;;4.05;;
10473;SDS011;5284;50.446;7.904;2023-03-14T18:19:24;21.67;;;5.22;;
10473;SDS011;5284;50.446;7.904;2023-03-14T18:24:27;15.88;;;3.95;;
10473;SDS011;5284;50.446;7.904;2023-03-14T18:29:32;19.35;;;4.35;;
10473;SDS011;5284;50.446;7.904;2023-03-14T18:34:35;19.42;;;5.10;;
10473;SDS011;5284;50.446;7.904;2023-03-14T18:39:38;20.55;;;4.05;;
10473;SDS011;5284;50.446;7.904;2023-03-14T18:44:43;15.55;;;5.53;;
10473;SDS011;5284;50.446;7.904;2023-03-14T18:49:46;17.60;;;5.18;;
10473;SDS011;5284;50.446;7.904;2023-03-14T18:54:49;21.05;;;6.18;;
10473;SDS011;5284;50.446;7.904;2023-03-14T18:59:54;19.98;;;6.35;;
10473;SDS011;5284;50.446;7.904;2023-03-14T19:04:58;20.55;;;6.57;;
10473;SDS011;5284;50.446;7.904;2023-03-14T19:10:01;24.33;;;6.82;;
10473;SDS011;5284;50.446;7.904;2023-03-14T19:15:07;28.38;;;8.77;;
10473;SDS011;5284;50.446;7.904;2023-03-14T19:20:12;25.73;;;8.93;;
10473;SDS011;5284;50.446;7.904;2023-03-14T19:25:15;19.17;;;6.80;;
10473;SDS011;5284;50.446;7.904;2023-03-14T19:30:20;35.22;;;8.95;;
10473;SDS011;5284;50.446;7.904;2023-03-14T19:35:23;18.42;;;5.90;;
10473;SDS011;5284;50.446;7.904;2023-03-14T19:40:26;15.40;;;5.47;;
10473;SDS011;5284;50.446;7.904;2023-03-14T19:45:30;27.08;;;6.68;;
10473;SDS011;5284;50.446;7.904;2023-03-14T19:50:37;24.17;;;6.18;;
10473;SDS011;5284;50.446;7.904;2023-03-14T19:55:40;23.85;;;5.57;;
10473;SDS011;5284;50.446;7.904;2023-03-14T20:00:49;18.92;;;5.93;;
10473;SDS011;5284;50.446;7.904;2023-03-14T20:05:53;36.17;;;7.10;;
10473;SDS011;5284;50.446;7.904;2023-03-14T20:10:56;20.38;;;6.47;;
10473;SDS011;5284;50.446;7.904;2023-03-14T20:16:03;19.02;;;4.95;;
10473;SDS011;5284;50.446;7.904;2023-03-14T20:21:08;34.42;;;7.50;;
10473;SDS011;5284;50.446;7.904;2023-03-14T20:26:13;37.80;;;6.60;;
10473;SDS011;5284;50.446;7.904;2023-03-14T20:31:18;28.38;;;5.32;;
10473;SDS011;5284;50.446;7.904;2023-03-14T20:36:22;17.05;;;4.25;;
10473;SDS011;5284;50.446;7.904;2023-03-14T20:41:26;42.70;;;8.80;;
10473;SDS011;5284;50.446;7.904;2023-03-14T20:46:32;31.20;;;5.60;;
10473;SDS011;5284;50.446;7.904;2023-03-14T20:51:35;26.55;;;6.18;;
10473;SDS011;5284;50.446;7.904;2023-03-14T20:56:39;20.70;;;6.93;;
10473;SDS011;5284;50.446;7.904;2023-03-14T21:01:43;30.75;;;5.05;;
10473;SDS011;5284;50.446;7.904;2023-03-14T21:06:48;23.13;;;5.90;;
10473;SDS011;5284;50.446;7.904;2023-03-14T21:11:51;33.33;;;6.55;;
10473;SDS011;5284;50.446;7.904;2023-03-14T21:16:55;37.15;;;6.45;;
10473;SDS011;5284;50.446;7.904;2023-03-14T21:22:01;28.10;;;5.37;;
10473;SDS011;5284;50.446;7.904;2023-03-14T21:27:06;31.40;;;5.88;;
10473;SDS011;5284;50.446;7.904;2023-03-14T21:32:10;25.45;;;4.32;;
10473;SDS011;5284;50.446;7.904;2023-03-14T21:37:13;26.88;;;5.78;;
10473;SDS011;5284;50.446;7.904;2023-03-14T21:42:16;24.20;;;4.22;;
10473;SDS011;5284;50.446;7.904;2023-03-14T21:47:20;13.75;;;2.53;;
10473;SDS011;5284;50.446;7.904;2023-03-14T21:57:29;21.10;;;4.78;;
10473;SDS011;5284;50.446;7.904;2023-03-14T22:02:34;29.90;;;3.72;;
10473;SDS011;5284;50.446;7.904;2023-03-14T22:07:37;19.25;;;4.85;;
10473;SDS011;5284;50.446;7.904;2023-03-14T22:12:42;23.65;;;5.07;;
10473;SDS011;5284;50.446;7.904;2023-03-14T22:17:47;38.47;;;6.65;;
10473;SDS011;5284;50.446;7.904;2023-03-14T22:22:52;27.80;;;3.70;;
10473;SDS011;5284;50.446;7.904;2023-03-14T22:27:55;22.38;;;5.40;;
10473;SDS011;5284;50.446;7.904;2023-03-14T22:32:59;17.55;;;4.88;;
10473;SDS011;5284;50.446;7.904;2023-03-14T22:38:02;22.23;;;3.78;;
10473;SDS011;5284;50.446;7.904;2023-03-14T22:43:04;37.88;;;7.15;;
10473;SDS011;5284;50.446;7.904;2023-03-14T22:48:08;21.30;;;4.18;;
10473;SDS011;5284;50.446;7.904;2023-03-14T22:53:12;18.23;;;7.70;;
10473;SDS011;5284;50.446;7.904;2023-03-14T22:58:14;19.35;;;4.63;;
10473;SDS011;5284;50.446;7.904;2023-03-14T23:03:19;22.25;;;4.78;;
10473;SDS011;5284;50.446;7.904;2023-03-14T23:08:24;28.70;;;4.10;;
10473;SDS011;5284;50.446;7.904;2023-03-14T23:13:27;13.18;;;3.22;;
10473;SDS011;5284;50.446;7.904;2023-03-14T23:18:33;32.72;;;5.68;;
10473;SDS011;5284;50.446;7.904;2023-03-14T23:23:37;30.08;;;6.20;;
10473;SDS011;5284;50.446;7.904;2023-03-14T23:28:41;20.38;;;4.97;;
10473;SDS011;5284;50.446;7.904;2023-03-14T23:33:46;29.05;;;4.82;;
10473;SDS011;5284;50.446;7.904;2023-03-14T23:38:49;20.77;;;3.63;;
10473;SDS011;5284;50.446;7.904;2023-03-14T23:43:52;21.27;;;3.97;;
10473;SDS011;5284;50.446;7.904;2023-03-14T23:48:56;30.42;;;3.97;;
10473;SDS011;5284;50.446;7.904;2023-03-14T23:53:59;29.48;;;4.65;;
10473;SDS011;5284;50.446;7.904;2023-03-14T23:59:02;42.38;;;3.70;;
